sensor_id;sensor_type;location;lat;lon;timestamp;P1;durP1;ratioP1;P2;durP2;ratioP2
3427;SDS011;1727;42.624;23.406;2022-12-18T00:01:22;8.27;;;6.80;;
3427;SDS011;1727;42.624;23.406;2022-12-18T00:03:50;8.70;;;6.50;;
3427;SDS011;1727;42.624;23.406;2022-12-18T00:06:19;6.70;;;6.10;;
3427;SDS011;1727;42.624;23.406;2022-12-18T00:08:47;7.23;;;6.40;;
3427;SDS011;1727;42.624;23.406;2022-12-18T00:11:15;6.73;;;6.10;;
3427;SDS011;1727;42.624;23.406;2022-12-18T00:13:45;13.90;;;9.23;;
3427;SDS011;1727;42.624;23.406;2022-12-18T00:16:14;6.60;;;5.90;;
3427;SDS011;1727;42.624;23.406;2022-12-18T00:18:43;7.10;;;6.30;;
3427;SDS011;1727;42.624;23.406;2022-12-18T00:21:10;7.80;;;6.00;;
3427;SDS011;1727;42.624;23.406;2022-12-18T00:23:41;8.37;;;5.70;;
3427;SDS011;1727;42.624;23.406;2022-12-18T00:26:10;8.60;;;6.43;;
3427;SDS011;1727;42.624;23.406;2022-12-18T00:28:40;9.00;;;7.30;;
3427;SDS011;1727;42.624;23.406;2022-12-18T00:31:08;7.17;;;6.07;;
3427;SDS011;1727;42.624;23.406;2022-12-18T00:33:36;7.40;;;5.87;;
3427;SDS011;1727;42.624;23.406;2022-12-18T00:36:04;9.10;;;6.40;;
3427;SDS011;1727;42.624;23.406;2022-12-18T00:38:32;7.37;;;6.33;;
3427;SDS011;1727;42.624;23.406;2022-12-18T00:41:00;11.30;;;7.33;;
3427;SDS011;1727;42.624;23.406;2022-12-18T00:43:27;7.37;;;6.40;;
3427;SDS011;1727;42.624;23.406;2022-12-18T00:45:53;7.80;;;6.70;;
3427;SDS011;1727;42.624;23.406;2022-12-18T00:48:20;7.10;;;5.73;;
3427;SDS011;1727;42.624;23.406;2022-12-18T00:50:47;7.77;;;6.87;;
3427;SDS011;1727;42.624;23.406;2022-12-18T00:53:14;7.73;;;6.40;;
3427;SDS011;1727;42.624;23.406;2022-12-18T00:55:41;9.80;;;6.67;;
3427;SDS011;1727;42.624;23.406;2022-12-18T00:58:11;7.90;;;6.80;;
3427;SDS011;1727;42.624;23.406;2022-12-18T01:00:38;9.57;;;6.70;;
3427;SDS011;1727;42.624;23.406;2022-12-18T01:03:05;8.50;;;7.17;;
3427;SDS011;1727;42.624;23.406;2022-12-18T01:05:32;7.90;;;6.87;;
3427;SDS011;1727;42.624;23.406;2022-12-18T01:07:59;10.50;;;8.20;;
3427;SDS011;1727;42.624;23.406;2022-12-18T01:10:26;14.33;;;8.40;;
3427;SDS011;1727;42.624;23.406;2022-12-18T01:12:53;11.10;;;8.17;;
3427;SDS011;1727;42.624;23.406;2022-12-18T01:15:21;8.20;;;7.40;;
3427;SDS011;1727;42.624;23.406;2022-12-18T01:17:48;11.30;;;8.20;;
3427;SDS011;1727;42.624;23.406;2022-12-18T01:20:14;12.57;;;9.00;;
3427;SDS011;1727;42.624;23.406;2022-12-18T01:22:41;11.00;;;8.37;;
3427;SDS011;1727;42.624;23.406;2022-12-18T01:25:08;9.60;;;8.23;;
3427;SDS011;1727;42.624;23.406;2022-12-18T01:27:35;9.00;;;8.10;;
3427;SDS011;1727;42.624;23.406;2022-12-18T01:30:02;12.50;;;8.07;;
3427;SDS011;1727;42.624;23.406;2022-12-18T01:32:31;9.07;;;8.17;;
3427;SDS011;1727;42.624;23.406;2022-12-18T01:34:58;13.60;;;7.83;;
3427;SDS011;1727;42.624;23.406;2022-12-18T01:37:25;9.27;;;7.60;;
3427;SDS011;1727;42.624;23.406;2022-12-18T01:39:52;10.67;;;7.97;;
3427;SDS011;1727;42.624;23.406;2022-12-18T01:42:19;10.87;;;8.27;;
3427;SDS011;1727;42.624;23.406;2022-12-18T01:44:57;7.70;;;6.50;;
3427;SDS011;1727;42.624;23.406;2022-12-18T01:47:27;8.23;;;7.40;;
3427;SDS011;1727;42.624;23.406;2022-12-18T01:49:59;8.17;;;7.30;;
3427;SDS011;1727;42.624;23.406;2022-12-18T01:52:29;10.20;;;8.10;;
3427;SDS011;1727;42.624;23.406;2022-12-18T01:54:58;9.03;;;7.47;;
3427;SDS011;1727;42.624;23.406;2022-12-18T01:57:27;9.77;;;7.27;;
3427;SDS011;1727;42.624;23.406;2022-12-18T01:59:55;10.17;;;7.73;;
3427;SDS011;1727;42.624;23.406;2022-12-18T02:02:27;22.70;;;11.53;;
3427;SDS011;1727;42.624;23.406;2022-12-18T02:04:55;10.30;;;9.13;;
3427;SDS011;1727;42.624;23.406;2022-12-18T02:07:24;9.73;;;7.53;;
3427;SDS011;1727;42.624;23.406;2022-12-18T02:09:59;7.43;;;6.57;;
3427;SDS011;1727;42.624;23.406;2022-12-18T02:12:30;9.53;;;7.83;;
3427;SDS011;1727;42.624;23.406;2022-12-18T02:15:05;11.07;;;8.70;;
3427;SDS011;1727;42.624;23.406;2022-12-18T02:17:47;11.70;;;7.83;;
3427;SDS011;1727;42.624;23.406;2022-12-18T02:20:17;10.33;;;8.50;;
3427;SDS011;1727;42.624;23.406;2022-12-18T02:22:53;10.50;;;8.67;;
3427;SDS011;1727;42.624;23.406;2022-12-18T02:28:30;12.00;;;8.60;;
3427;SDS011;1727;42.624;23.406;2022-12-18T02:31:01;10.47;;;8.23;;
3427;SDS011;1727;42.624;23.406;2022-12-18T02:33:30;11.47;;;9.27;;
3427;SDS011;1727;42.624;23.406;2022-12-18T02:35:59;11.93;;;10.00;;
3427;SDS011;1727;42.624;23.406;2022-12-18T02:38:27;12.70;;;9.70;;
3427;SDS011;1727;42.624;23.406;2022-12-18T02:40:57;9.70;;;8.50;;
3427;SDS011;1727;42.624;23.406;2022-12-18T02:43:25;11.77;;;9.30;;
3427;SDS011;1727;42.624;23.406;2022-12-18T02:45:53;13.60;;;9.60;;
3427;SDS011;1727;42.624;23.406;2022-12-18T02:48:22;10.50;;;8.10;;
3427;SDS011;1727;42.624;23.406;2022-12-18T02:50:53;9.03;;;7.90;;
3427;SDS011;1727;42.624;23.406;2022-12-18T02:53:30;10.60;;;8.03;;
3427;SDS011;1727;42.624;23.406;2022-12-18T02:56:05;11.50;;;8.53;;
3427;SDS011;1727;42.624;23.406;2022-12-18T02:58:41;16.67;;;10.10;;
3427;SDS011;1727;42.624;23.406;2022-12-18T03:01:15;11.40;;;8.60;;
3427;SDS011;1727;42.624;23.406;2022-12-18T03:03:46;21.10;;;15.50;;
3427;SDS011;1727;42.624;23.406;2022-12-18T03:06:18;11.83;;;9.20;;
3427;SDS011;1727;42.624;23.406;2022-12-18T03:08:51;9.27;;;8.20;;
3427;SDS011;1727;42.624;23.406;2022-12-18T03:11:26;13.27;;;8.17;;
3427;SDS011;1727;42.624;23.406;2022-12-18T03:14:13;10.97;;;8.20;;
3427;SDS011;1727;42.624;23.406;2022-12-18T03:16:43;11.23;;;8.47;;
3427;SDS011;1727;42.624;23.406;2022-12-18T03:19:13;10.90;;;9.73;;
3427;SDS011;1727;42.624;23.406;2022-12-18T03:21:43;13.00;;;9.90;;
3427;SDS011;1727;42.624;23.406;2022-12-18T03:24:13;11.23;;;9.23;;
3427;SDS011;1727;42.624;23.406;2022-12-18T03:26:44;12.00;;;9.80;;
3427;SDS011;1727;42.624;23.406;2022-12-18T03:29:16;12.63;;;9.73;;
3427;SDS011;1727;42.624;23.406;2022-12-18T03:31:47;11.73;;;8.43;;
3427;SDS011;1727;42.624;23.406;2022-12-18T03:34:21;18.30;;;9.17;;
3427;SDS011;1727;42.624;23.406;2022-12-18T03:36:51;12.03;;;10.03;;
3427;SDS011;1727;42.624;23.406;2022-12-18T03:39:18;12.63;;;9.90;;
3427;SDS011;1727;42.624;23.406;2022-12-18T03:41:50;17.13;;;9.90;;
3427;SDS011;1727;42.624;23.406;2022-12-18T03:44:25;9.67;;;7.90;;
3427;SDS011;1727;42.624;23.406;2022-12-18T03:46:58;27.83;;;15.60;;
3427;SDS011;1727;42.624;23.406;2022-12-18T03:49:33;19.03;;;11.23;;
3427;SDS011;1727;42.624;23.406;2022-12-18T03:52:04;15.13;;;11.43;;
3427;SDS011;1727;42.624;23.406;2022-12-18T03:54:35;10.10;;;8.10;;
3427;SDS011;1727;42.624;23.406;2022-12-18T03:57:07;12.60;;;7.33;;
3427;SDS011;1727;42.624;23.406;2022-12-18T03:59:39;13.90;;;9.90;;
3427;SDS011;1727;42.624;23.406;2022-12-18T04:02:07;13.83;;;9.33;;
3427;SDS011;1727;42.624;23.406;2022-12-18T04:04:34;14.23;;;9.20;;
3427;SDS011;1727;42.624;23.406;2022-12-18T04:07:04;11.87;;;9.43;;
3427;SDS011;1727;42.624;23.406;2022-12-18T04:09:32;10.80;;;8.20;;
3427;SDS011;1727;42.624;23.406;2022-12-18T04:12:00;10.37;;;8.80;;
3427;SDS011;1727;42.624;23.406;2022-12-18T04:14:28;18.90;;;9.83;;
3427;SDS011;1727;42.624;23.406;2022-12-18T04:16:55;17.40;;;11.20;;
3427;SDS011;1727;42.624;23.406;2022-12-18T04:19:22;19.17;;;12.80;;
3427;SDS011;1727;42.624;23.406;2022-12-18T04:21:48;14.30;;;9.90;;
3427;SDS011;1727;42.624;23.406;2022-12-18T04:24:17;19.17;;;10.40;;
3427;SDS011;1727;42.624;23.406;2022-12-18T04:26:44;12.20;;;8.93;;
3427;SDS011;1727;42.624;23.406;2022-12-18T04:29:11;11.40;;;8.60;;
3427;SDS011;1727;42.624;23.406;2022-12-18T04:31:39;8.17;;;7.30;;
3427;SDS011;1727;42.624;23.406;2022-12-18T04:34:06;11.80;;;8.53;;
3427;SDS011;1727;42.624;23.406;2022-12-18T04:36:33;9.13;;;7.60;;
3427;SDS011;1727;42.624;23.406;2022-12-18T04:39:00;9.30;;;7.20;;
3427;SDS011;1727;42.624;23.406;2022-12-18T04:41:26;11.53;;;8.20;;
3427;SDS011;1727;42.624;23.406;2022-12-18T04:43:53;9.43;;;7.23;;
3427;SDS011;1727;42.624;23.406;2022-12-18T04:46:20;13.57;;;8.70;;
3427;SDS011;1727;42.624;23.406;2022-12-18T04:48:48;13.47;;;9.47;;
3427;SDS011;1727;42.624;23.406;2022-12-18T04:51:15;19.27;;;10.30;;
3427;SDS011;1727;42.624;23.406;2022-12-18T04:53:41;11.40;;;7.63;;
3427;SDS011;1727;42.624;23.406;2022-12-18T04:56:09;10.40;;;8.30;;
3427;SDS011;1727;42.624;23.406;2022-12-18T04:58:37;13.70;;;9.03;;
3427;SDS011;1727;42.624;23.406;2022-12-18T05:01:05;12.00;;;9.97;;
3427;SDS011;1727;42.624;23.406;2022-12-18T05:03:33;12.53;;;9.67;;
3427;SDS011;1727;42.624;23.406;2022-12-18T05:06:02;11.73;;;8.70;;
3427;SDS011;1727;42.624;23.406;2022-12-18T05:08:30;13.53;;;10.60;;
3427;SDS011;1727;42.624;23.406;2022-12-18T05:11:00;14.47;;;10.00;;
3427;SDS011;1727;42.624;23.406;2022-12-18T05:13:28;15.07;;;11.13;;
3427;SDS011;1727;42.624;23.406;2022-12-18T05:15:55;13.53;;;9.13;;
3427;SDS011;1727;42.624;23.406;2022-12-18T05:18:22;13.60;;;10.20;;
3427;SDS011;1727;42.624;23.406;2022-12-18T05:20:50;13.70;;;10.50;;
3427;SDS011;1727;42.624;23.406;2022-12-18T05:23:19;15.57;;;11.63;;
3427;SDS011;1727;42.624;23.406;2022-12-18T05:25:50;17.80;;;11.90;;
3427;SDS011;1727;42.624;23.406;2022-12-18T05:28:17;13.53;;;10.00;;
3427;SDS011;1727;42.624;23.406;2022-12-18T05:30:47;13.63;;;11.07;;
3427;SDS011;1727;42.624;23.406;2022-12-18T05:33:14;14.60;;;10.90;;
3427;SDS011;1727;42.624;23.406;2022-12-18T05:35:41;12.40;;;8.97;;
3427;SDS011;1727;42.624;23.406;2022-12-18T05:38:08;16.33;;;9.20;;
3427;SDS011;1727;42.624;23.406;2022-12-18T05:40:36;18.53;;;10.77;;
3427;SDS011;1727;42.624;23.406;2022-12-18T05:43:03;16.07;;;11.03;;
3427;SDS011;1727;42.624;23.406;2022-12-18T05:45:31;17.33;;;11.00;;
3427;SDS011;1727;42.624;23.406;2022-12-18T05:47:58;16.87;;;10.57;;
3427;SDS011;1727;42.624;23.406;2022-12-18T05:50:25;12.83;;;9.80;;
3427;SDS011;1727;42.624;23.406;2022-12-18T05:52:51;21.60;;;11.10;;
3427;SDS011;1727;42.624;23.406;2022-12-18T05:55:18;14.00;;;10.27;;
3427;SDS011;1727;42.624;23.406;2022-12-18T05:57:46;16.27;;;9.93;;
3427;SDS011;1727;42.624;23.406;2022-12-18T06:00:14;12.40;;;9.13;;
3427;SDS011;1727;42.624;23.406;2022-12-18T06:02:41;15.00;;;9.80;;
3427;SDS011;1727;42.624;23.406;2022-12-18T06:05:08;13.43;;;10.10;;
3427;SDS011;1727;42.624;23.406;2022-12-18T06:07:35;15.70;;;9.60;;
3427;SDS011;1727;42.624;23.406;2022-12-18T06:10:02;11.97;;;10.13;;
3427;SDS011;1727;42.624;23.406;2022-12-18T06:12:30;17.43;;;9.90;;
3427;SDS011;1727;42.624;23.406;2022-12-18T06:14:59;14.77;;;10.95;;
3427;SDS011;1727;42.624;23.406;2022-12-18T06:17:27;17.33;;;12.27;;
3427;SDS011;1727;42.624;23.406;2022-12-18T06:19:55;17.13;;;9.93;;
3427;SDS011;1727;42.624;23.406;2022-12-18T06:22:21;18.17;;;11.43;;
3427;SDS011;1727;42.624;23.406;2022-12-18T06:24:48;16.60;;;11.30;;
3427;SDS011;1727;42.624;23.406;2022-12-18T06:27:15;17.90;;;12.40;;
3427;SDS011;1727;42.624;23.406;2022-12-18T06:29:42;18.50;;;10.80;;
3427;SDS011;1727;42.624;23.406;2022-12-18T06:32:10;20.70;;;12.70;;
3427;SDS011;1727;42.624;23.406;2022-12-18T06:34:37;19.70;;;13.20;;
3427;SDS011;1727;42.624;23.406;2022-12-18T06:37:07;21.93;;;13.37;;
3427;SDS011;1727;42.624;23.406;2022-12-18T06:39:34;18.57;;;12.97;;
3427;SDS011;1727;42.624;23.406;2022-12-18T06:42:02;21.67;;;16.20;;
3427;SDS011;1727;42.624;23.406;2022-12-18T06:44:29;18.50;;;13.53;;
3427;SDS011;1727;42.624;23.406;2022-12-18T06:46:56;19.93;;;14.30;;
3427;SDS011;1727;42.624;23.406;2022-12-18T06:49:24;18.27;;;11.53;;
3427;SDS011;1727;42.624;23.406;2022-12-18T06:51:51;19.23;;;12.30;;
3427;SDS011;1727;42.624;23.406;2022-12-18T06:54:18;21.20;;;13.10;;
3427;SDS011;1727;42.624;23.406;2022-12-18T06:56:45;20.87;;;13.07;;
3427;SDS011;1727;42.624;23.406;2022-12-18T06:59:12;20.80;;;13.53;;
3427;SDS011;1727;42.624;23.406;2022-12-18T07:01:39;22.07;;;13.90;;
3427;SDS011;1727;42.624;23.406;2022-12-18T07:04:06;20.30;;;14.43;;
3427;SDS011;1727;42.624;23.406;2022-12-18T07:06:35;17.40;;;12.80;;
3427;SDS011;1727;42.624;23.406;2022-12-18T07:09:01;18.20;;;13.07;;
3427;SDS011;1727;42.624;23.406;2022-12-18T07:11:28;18.43;;;10.97;;
3427;SDS011;1727;42.624;23.406;2022-12-18T07:13:55;14.93;;;10.50;;
3427;SDS011;1727;42.624;23.406;2022-12-18T07:16:25;20.63;;;12.70;;
3427;SDS011;1727;42.624;23.406;2022-12-18T07:18:54;21.93;;;12.67;;
3427;SDS011;1727;42.624;23.406;2022-12-18T07:21:22;20.40;;;13.33;;
3427;SDS011;1727;42.624;23.406;2022-12-18T07:23:51;20.47;;;13.67;;
3427;SDS011;1727;42.624;23.406;2022-12-18T07:26:19;20.97;;;13.50;;
3427;SDS011;1727;42.624;23.406;2022-12-18T07:28:47;19.37;;;12.27;;
3427;SDS011;1727;42.624;23.406;2022-12-18T07:31:15;19.30;;;13.03;;
3427;SDS011;1727;42.624;23.406;2022-12-18T07:33:43;20.17;;;14.00;;
3427;SDS011;1727;42.624;23.406;2022-12-18T07:36:10;21.03;;;13.00;;
3427;SDS011;1727;42.624;23.406;2022-12-18T07:38:37;20.93;;;13.53;;
3427;SDS011;1727;42.624;23.406;2022-12-18T07:41:07;30.50;;;19.00;;
3427;SDS011;1727;42.624;23.406;2022-12-18T07:43:35;23.63;;;16.20;;
3427;SDS011;1727;42.624;23.406;2022-12-18T07:46:02;26.70;;;17.60;;
3427;SDS011;1727;42.624;23.406;2022-12-18T07:48:30;32.37;;;19.30;;
3427;SDS011;1727;42.624;23.406;2022-12-18T07:50:57;22.60;;;16.13;;
3427;SDS011;1727;42.624;23.406;2022-12-18T07:53:24;27.20;;;15.10;;
3427;SDS011;1727;42.624;23.406;2022-12-18T07:55:54;21.40;;;15.70;;
3427;SDS011;1727;42.624;23.406;2022-12-18T07:58:23;20.60;;;14.03;;
3427;SDS011;1727;42.624;23.406;2022-12-18T08:00:50;22.27;;;14.17;;
3427;SDS011;1727;42.624;23.406;2022-12-18T08:03:17;19.77;;;13.10;;
3427;SDS011;1727;42.624;23.406;2022-12-18T08:05:44;21.60;;;14.17;;
3427;SDS011;1727;42.624;23.406;2022-12-18T08:08:11;22.07;;;14.13;;
3427;SDS011;1727;42.624;23.406;2022-12-18T08:10:38;22.30;;;13.50;;
3427;SDS011;1727;42.624;23.406;2022-12-18T08:13:05;20.77;;;13.67;;
3427;SDS011;1727;42.624;23.406;2022-12-18T08:15:33;21.70;;;13.97;;
3427;SDS011;1727;42.624;23.406;2022-12-18T08:18:00;24.00;;;14.27;;
3427;SDS011;1727;42.624;23.406;2022-12-18T08:20:27;24.33;;;13.73;;
3427;SDS011;1727;42.624;23.406;2022-12-18T08:22:53;25.50;;;13.97;;
3427;SDS011;1727;42.624;23.406;2022-12-18T08:25:23;27.67;;;14.60;;
3427;SDS011;1727;42.624;23.406;2022-12-18T08:27:50;28.37;;;15.50;;
3427;SDS011;1727;42.624;23.406;2022-12-18T08:30:16;20.80;;;13.47;;
3427;SDS011;1727;42.624;23.406;2022-12-18T08:32:45;20.10;;;13.90;;
3427;SDS011;1727;42.624;23.406;2022-12-18T08:35:12;19.70;;;13.07;;
3427;SDS011;1727;42.624;23.406;2022-12-18T08:37:38;22.03;;;15.20;;
3427;SDS011;1727;42.624;23.406;2022-12-18T08:40:06;20.30;;;13.00;;
3427;SDS011;1727;42.624;23.406;2022-12-18T08:42:33;22.27;;;15.50;;
3427;SDS011;1727;42.624;23.406;2022-12-18T08:45:18;24.30;;;14.30;;
3427;SDS011;1727;42.624;23.406;2022-12-18T08:47:46;20.77;;;16.47;;
3427;SDS011;1727;42.624;23.406;2022-12-18T08:50:12;24.37;;;14.57;;
3427;SDS011;1727;42.624;23.406;2022-12-18T08:52:40;23.03;;;14.40;;
3427;SDS011;1727;42.624;23.406;2022-12-18T08:55:07;19.20;;;13.87;;
3427;SDS011;1727;42.624;23.406;2022-12-18T08:57:35;23.10;;;15.70;;
3427;SDS011;1727;42.624;23.406;2022-12-18T09:00:02;30.83;;;18.37;;
3427;SDS011;1727;42.624;23.406;2022-12-18T09:02:29;25.87;;;17.13;;
3427;SDS011;1727;42.624;23.406;2022-12-18T09:04:57;23.40;;;16.50;;
3427;SDS011;1727;42.624;23.406;2022-12-18T09:07:24;30.00;;;18.93;;
3427;SDS011;1727;42.624;23.406;2022-12-18T09:09:51;25.90;;;17.07;;
3427;SDS011;1727;42.624;23.406;2022-12-18T09:12:17;23.30;;;16.30;;
3427;SDS011;1727;42.624;23.406;2022-12-18T09:14:44;29.40;;;17.60;;
3427;SDS011;1727;42.624;23.406;2022-12-18T09:17:11;23.40;;;16.77;;
3427;SDS011;1727;42.624;23.406;2022-12-18T09:19:38;28.97;;;17.60;;
3427;SDS011;1727;42.624;23.406;2022-12-18T09:22:06;24.53;;;15.90;;
3427;SDS011;1727;42.624;23.406;2022-12-18T09:24:34;23.60;;;15.63;;
3427;SDS011;1727;42.624;23.406;2022-12-18T09:27:01;28.93;;;16.33;;
3427;SDS011;1727;42.624;23.406;2022-12-18T09:29:28;22.70;;;15.57;;
3427;SDS011;1727;42.624;23.406;2022-12-18T09:31:54;27.57;;;17.20;;
3427;SDS011;1727;42.624;23.406;2022-12-18T09:34:21;27.90;;;19.35;;
3427;SDS011;1727;42.624;23.406;2022-12-18T09:36:48;25.03;;;16.80;;
3427;SDS011;1727;42.624;23.406;2022-12-18T09:39:16;24.50;;;16.03;;
3427;SDS011;1727;42.624;23.406;2022-12-18T09:41:44;25.50;;;17.67;;
3427;SDS011;1727;42.624;23.406;2022-12-18T09:44:25;33.33;;;16.77;;
3427;SDS011;1727;42.624;23.406;2022-12-18T09:47:02;23.73;;;14.37;;
3427;SDS011;1727;42.624;23.406;2022-12-18T09:49:35;24.63;;;15.77;;
3427;SDS011;1727;42.624;23.406;2022-12-18T09:52:08;24.73;;;14.73;;
3427;SDS011;1727;42.624;23.406;2022-12-18T09:54:39;26.23;;;17.13;;
3427;SDS011;1727;42.624;23.406;2022-12-18T09:57:10;24.20;;;16.83;;
3427;SDS011;1727;42.624;23.406;2022-12-18T09:59:40;20.63;;;13.87;;
3427;SDS011;1727;42.624;23.406;2022-12-18T10:02:16;26.40;;;17.27;;
3427;SDS011;1727;42.624;23.406;2022-12-18T10:04:47;25.77;;;15.27;;
3427;SDS011;1727;42.624;23.406;2022-12-18T10:07:21;21.33;;;14.80;;
3427;SDS011;1727;42.624;23.406;2022-12-18T10:09:57;19.57;;;13.50;;
3427;SDS011;1727;42.624;23.406;2022-12-18T10:12:35;21.03;;;14.67;;
3427;SDS011;1727;42.624;23.406;2022-12-18T10:15:10;24.43;;;16.30;;
3427;SDS011;1727;42.624;23.406;2022-12-18T10:17:47;22.57;;;14.63;;
3427;SDS011;1727;42.624;23.406;2022-12-18T10:20:19;22.33;;;16.30;;
3427;SDS011;1727;42.624;23.406;2022-12-18T10:22:53;25.10;;;14.70;;
3427;SDS011;1727;42.624;23.406;2022-12-18T10:25:31;23.00;;;15.60;;
3427;SDS011;1727;42.624;23.406;2022-12-18T10:28:07;28.47;;;17.00;;
3427;SDS011;1727;42.624;23.406;2022-12-18T10:30:37;25.67;;;17.30;;
3427;SDS011;1727;42.624;23.406;2022-12-18T10:33:08;29.17;;;18.00;;
3427;SDS011;1727;42.624;23.406;2022-12-18T10:35:38;21.93;;;14.90;;
3427;SDS011;1727;42.624;23.406;2022-12-18T10:38:20;28.03;;;17.90;;
3427;SDS011;1727;42.624;23.406;2022-12-18T10:40:50;26.37;;;18.60;;
3427;SDS011;1727;42.624;23.406;2022-12-18T10:43:20;42.90;;;24.90;;
3427;SDS011;1727;42.624;23.406;2022-12-18T10:48:50;38.47;;;22.17;;
3427;SDS011;1727;42.624;23.406;2022-12-18T10:51:19;60.37;;;27.37;;
3427;SDS011;1727;42.624;23.406;2022-12-18T10:53:51;28.63;;;18.83;;
3427;SDS011;1727;42.624;23.406;2022-12-18T10:56:22;46.13;;;25.10;;
3427;SDS011;1727;42.624;23.406;2022-12-18T10:58:55;26.03;;;17.00;;
3427;SDS011;1727;42.624;23.406;2022-12-18T11:01:25;25.63;;;15.13;;
3427;SDS011;1727;42.624;23.406;2022-12-18T11:04:01;21.43;;;14.17;;
3427;SDS011;1727;42.624;23.406;2022-12-18T11:06:36;22.83;;;15.43;;
3427;SDS011;1727;42.624;23.406;2022-12-18T11:09:19;27.37;;;17.83;;
3427;SDS011;1727;42.624;23.406;2022-12-18T11:11:49;25.17;;;15.70;;
3427;SDS011;1727;42.624;23.406;2022-12-18T11:14:20;27.70;;;15.67;;
3427;SDS011;1727;42.624;23.406;2022-12-18T11:16:49;23.47;;;15.90;;
3427;SDS011;1727;42.624;23.406;2022-12-18T11:19:23;31.47;;;19.20;;
3427;SDS011;1727;42.624;23.406;2022-12-18T11:21:58;27.80;;;16.53;;
3427;SDS011;1727;42.624;23.406;2022-12-18T11:24:27;31.27;;;16.60;;
3427;SDS011;1727;42.624;23.406;2022-12-18T11:26:59;30.07;;;15.73;;
3427;SDS011;1727;42.624;23.406;2022-12-18T11:29:33;20.83;;;12.87;;
3427;SDS011;1727;42.624;23.406;2022-12-18T11:35:07;20.90;;;13.37;;
3427;SDS011;1727;42.624;23.406;2022-12-18T11:37:41;25.87;;;15.10;;
3427;SDS011;1727;42.624;23.406;2022-12-18T11:40:13;29.57;;;18.13;;
3427;SDS011;1727;42.624;23.406;2022-12-18T11:42:46;30.37;;;16.50;;
3427;SDS011;1727;42.624;23.406;2022-12-18T11:45:23;30.33;;;17.90;;
3427;SDS011;1727;42.624;23.406;2022-12-18T11:47:56;33.50;;;22.23;;
3427;SDS011;1727;42.624;23.406;2022-12-18T11:50:29;31.10;;;21.07;;
3427;SDS011;1727;42.624;23.406;2022-12-18T11:53:09;27.10;;;17.20;;
3427;SDS011;1727;42.624;23.406;2022-12-18T11:55:39;25.87;;;16.20;;
3427;SDS011;1727;42.624;23.406;2022-12-18T11:58:14;27.50;;;17.53;;
3427;SDS011;1727;42.624;23.406;2022-12-18T12:00:52;32.23;;;19.23;;
3427;SDS011;1727;42.624;23.406;2022-12-18T12:06:21;26.93;;;15.77;;
3427;SDS011;1727;42.624;23.406;2022-12-18T12:09:01;28.10;;;17.70;;
3427;SDS011;1727;42.624;23.406;2022-12-18T12:11:36;27.73;;;15.63;;
3427;SDS011;1727;42.624;23.406;2022-12-18T12:14:18;27.30;;;15.83;;
3427;SDS011;1727;42.624;23.406;2022-12-18T12:16:57;33.23;;;18.40;;
3427;SDS011;1727;42.624;23.406;2022-12-18T12:19:32;32.33;;;15.57;;
3427;SDS011;1727;42.624;23.406;2022-12-18T12:22:08;28.40;;;15.53;;
3427;SDS011;1727;42.624;23.406;2022-12-18T12:24:48;30.87;;;16.50;;
3427;SDS011;1727;42.624;23.406;2022-12-18T12:27:25;27.40;;;15.50;;
3427;SDS011;1727;42.624;23.406;2022-12-18T12:30:04;24.83;;;15.20;;
3427;SDS011;1727;42.624;23.406;2022-12-18T12:32:58;18.17;;;13.10;;
3427;SDS011;1727;42.624;23.406;2022-12-18T12:35:42;23.17;;;14.50;;
3427;SDS011;1727;42.624;23.406;2022-12-18T12:38:16;25.50;;;15.17;;
3427;SDS011;1727;42.624;23.406;2022-12-18T12:40:49;26.73;;;17.57;;
3427;SDS011;1727;42.624;23.406;2022-12-18T12:43:22;26.60;;;17.60;;
3427;SDS011;1727;42.624;23.406;2022-12-18T12:45:58;25.33;;;16.00;;
3427;SDS011;1727;42.624;23.406;2022-12-18T12:48:32;26.07;;;17.60;;
3427;SDS011;1727;42.624;23.406;2022-12-18T12:51:06;23.07;;;16.17;;
3427;SDS011;1727;42.624;23.406;2022-12-18T12:53:38;26.40;;;14.83;;
3427;SDS011;1727;42.624;23.406;2022-12-18T12:56:06;27.70;;;16.00;;
3427;SDS011;1727;42.624;23.406;2022-12-18T12:58:37;21.90;;;14.67;;
3427;SDS011;1727;42.624;23.406;2022-12-18T13:01:16;30.07;;;14.03;;
3427;SDS011;1727;42.624;23.406;2022-12-18T13:03:52;24.80;;;14.47;;
3427;SDS011;1727;42.624;23.406;2022-12-18T13:06:25;23.03;;;16.20;;
3427;SDS011;1727;42.624;23.406;2022-12-18T13:09:03;26.30;;;16.40;;
3427;SDS011;1727;42.624;23.406;2022-12-18T13:11:31;23.83;;;16.10;;
3427;SDS011;1727;42.624;23.406;2022-12-18T13:14:23;26.60;;;16.23;;
3427;SDS011;1727;42.624;23.406;2022-12-18T13:20:09;26.73;;;18.37;;
3427;SDS011;1727;42.624;23.406;2022-12-18T13:22:39;26.10;;;18.07;;
3427;SDS011;1727;42.624;23.406;2022-12-18T13:27:59;33.67;;;19.83;;
3427;SDS011;1727;42.624;23.406;2022-12-18T13:30:41;31.27;;;21.97;;
3427;SDS011;1727;42.624;23.406;2022-12-18T13:36:23;38.30;;;21.00;;
3427;SDS011;1727;42.624;23.406;2022-12-18T13:39:09;36.63;;;22.30;;
3427;SDS011;1727;42.624;23.406;2022-12-18T13:41:49;41.30;;;23.07;;
3427;SDS011;1727;42.624;23.406;2022-12-18T13:44:24;27.03;;;17.17;;
3427;SDS011;1727;42.624;23.406;2022-12-18T13:46:55;26.93;;;17.80;;
3427;SDS011;1727;42.624;23.406;2022-12-18T13:49:23;34.43;;;19.33;;
3427;SDS011;1727;42.624;23.406;2022-12-18T13:51:53;33.03;;;21.33;;
3427;SDS011;1727;42.624;23.406;2022-12-18T13:54:23;32.57;;;20.00;;
3427;SDS011;1727;42.624;23.406;2022-12-18T13:56:56;26.60;;;17.80;;
3427;SDS011;1727;42.624;23.406;2022-12-18T13:59:23;39.80;;;21.90;;
3427;SDS011;1727;42.624;23.406;2022-12-18T14:01:52;35.38;;;24.92;;
3427;SDS011;1727;42.624;23.406;2022-12-18T14:04:22;34.00;;;21.13;;
3427;SDS011;1727;42.624;23.406;2022-12-18T14:06:53;39.63;;;24.57;;
3427;SDS011;1727;42.624;23.406;2022-12-18T14:09:27;37.80;;;23.57;;
3427;SDS011;1727;42.624;23.406;2022-12-18T14:12:01;36.30;;;22.40;;
3427;SDS011;1727;42.624;23.406;2022-12-18T14:14:46;38.83;;;23.73;;
3427;SDS011;1727;42.624;23.406;2022-12-18T14:17:15;33.80;;;20.73;;
3427;SDS011;1727;42.624;23.406;2022-12-18T14:19:43;26.43;;;17.40;;
3427;SDS011;1727;42.624;23.406;2022-12-18T14:22:15;41.43;;;24.30;;
3427;SDS011;1727;42.624;23.406;2022-12-18T14:24:44;35.77;;;21.73;;
3427;SDS011;1727;42.624;23.406;2022-12-18T14:27:21;29.27;;;19.00;;
3427;SDS011;1727;42.624;23.406;2022-12-18T14:29:50;31.27;;;18.70;;
3427;SDS011;1727;42.624;23.406;2022-12-18T14:32:19;29.70;;;18.73;;
3427;SDS011;1727;42.624;23.406;2022-12-18T14:34:48;26.80;;;15.83;;
3427;SDS011;1727;42.624;23.406;2022-12-18T14:37:17;25.00;;;16.70;;
3427;SDS011;1727;42.624;23.406;2022-12-18T14:39:56;28.70;;;16.43;;
3427;SDS011;1727;42.624;23.406;2022-12-18T14:42:24;30.90;;;19.40;;
3427;SDS011;1727;42.624;23.406;2022-12-18T14:47:53;25.03;;;17.10;;
3427;SDS011;1727;42.624;23.406;2022-12-18T14:50:20;27.27;;;15.73;;
3427;SDS011;1727;42.624;23.406;2022-12-18T14:52:48;26.47;;;15.53;;
3427;SDS011;1727;42.624;23.406;2022-12-18T14:55:19;30.20;;;19.13;;
3427;SDS011;1727;42.624;23.406;2022-12-18T14:57:48;30.67;;;17.73;;
3427;SDS011;1727;42.624;23.406;2022-12-18T15:00:19;25.03;;;16.87;;
3427;SDS011;1727;42.624;23.406;2022-12-18T15:02:48;30.90;;;17.47;;
3427;SDS011;1727;42.624;23.406;2022-12-18T15:05:19;31.40;;;19.90;;
3427;SDS011;1727;42.624;23.406;2022-12-18T15:07:52;28.90;;;16.53;;
3427;SDS011;1727;42.624;23.406;2022-12-18T15:10:22;40.20;;;21.60;;
3427;SDS011;1727;42.624;23.406;2022-12-18T15:13:05;52.83;;;29.00;;
3427;SDS011;1727;42.624;23.406;2022-12-18T15:18:29;47.20;;;25.00;;
3427;SDS011;1727;42.624;23.406;2022-12-18T15:20:58;56.23;;;28.50;;
3427;SDS011;1727;42.624;23.406;2022-12-18T15:23:36;35.10;;;19.63;;
3427;SDS011;1727;42.624;23.406;2022-12-18T15:36:16;78.20;;;29.13;;